Time;durP1;ratioP1;P1;durP2;ratioP2;P2;SDS_P1;SDS_P2;PMS_P1;PMS_P2;Temp;Humidity;BMP_temperature;BMP_pressure;BME280_temperature;BME280_humidity;BME280_pressure;Samples;Min_cycle;Max_cycle;Signal;HPM_P1;HPM_P2
2021/10/17 00:00:50;;;;;;;21.83;13.00;;;8.70;99.90;;;;;;5029446;28;20201;-68
2021/10/17 00:03:19;;;;;;;21.13;12.27;;;8.70;99.90;;;;;;5027453;28;20213;-69
2021/10/17 00:05:47;;;;;;;24.37;13.03;;;8.70;99.90;;;;;;5020058;28;20732;-69
2021/10/17 00:08:16;;;;;;;20.90;12.50;;;8.70;99.90;;;;;;5015766;28;20308;-69
2021/10/17 00:10:46;;;;;;;24.10;12.63;;;8.70;99.90;;;;;;5023050;28;20200;-69
2021/10/17 00:13:15;;;;;;;26.20;12.87;;;8.60;99.90;;;;;;5026922;28;20607;-69
2021/10/17 00:15:46;;;;;;;28.10;12.57;;;8.60;99.90;;;;;;5027092;28;20652;-69
2021/10/17 00:18:17;;;;;;;23.70;12.30;;;8.50;99.90;;;;;;5022021;28;20551;-69
2021/10/17 00:20:46;;;;;;;25.03;12.80;;;8.50;99.90;;;;;;5030355;28;20905;-69
2021/10/17 00:23:14;;;;;;;18.73;11.33;;;8.50;99.90;;;;;;5027505;28;20244;-69
2021/10/17 00:25:42;;;;;;;27.70;13.57;;;8.40;99.90;;;;;;5026129;28;20198;-69
2021/10/17 00:28:12;;;;;;;23.63;12.07;;;8.30;99.90;;;;;;5023626;28;20208;-70
2021/10/17 00:30:41;;;;;;;20.43;12.47;;;8.30;99.90;;;;;;5025572;28;20201;-68
2021/10/17 00:33:10;;;;;;;20.37;11.70;;;8.20;99.90;;;;;;5026071;28;20189;-69
2021/10/17 00:35:39;;;;;;;21.07;11.83;;;8.20;99.90;;;;;;5022833;28;20224;-69
2021/10/17 00:38:07;;;;;;;18.23;11.93;;;8.10;99.90;;;;;;5025420;28;20221;-69
2021/10/17 00:40:36;;;;;;;29.77;12.20;;;8.00;99.90;;;;;;5024330;28;20255;-69
2021/10/17 00:43:05;;;;;;;25.50;12.40;;;7.90;99.90;;;;;;5023582;28;20406;-70
2021/10/17 00:45:38;;;;;;;24.17;12.77;;;7.80;99.90;;;;;;5021374;28;20198;-69
2021/10/17 00:48:09;;;;;;;25.07;12.90;;;7.80;99.90;;;;;;5025884;28;20231;-69
2021/10/17 00:50:38;;;;;;;20.20;11.87;;;7.70;99.90;;;;;;5032894;28;20256;-69
2021/10/17 00:53:07;;;;;;;30.73;13.50;;;7.60;99.90;;;;;;5024814;28;20206;-69
2021/10/17 00:55:35;;;;;;;21.73;12.80;;;7.60;99.90;;;;;;5022440;28;20218;-69
2021/10/17 00:58:20;;;;;;;22.43;12.50;;;7.60;99.90;;;;;;5028667;28;20268;-69
2021/10/17 01:00:51;;;;;;;25.93;14.03;;;7.60;99.90;;;;;;5025572;28;20537;-69
2021/10/17 01:03:20;;;;;;;24.20;14.23;;;7.70;99.90;;;;;;5027106;28;20709;-69
2021/10/17 01:05:48;;;;;;;22.70;12.97;;;7.70;99.90;;;;;;5030679;28;20267;-70
2021/10/17 01:08:17;;;;;;;28.23;13.50;;;7.60;99.90;;;;;;5035186;28;20228;-69
2021/10/17 01:10:47;;;;;;;24.57;13.93;;;7.60;99.90;;;;;;5033107;28;20671;-69
2021/10/17 01:13:16;;;;;;;31.27;14.23;;;7.50;99.90;;;;;;5026101;28;20224;-69
2021/10/17 01:15:49;;;;;;;22.80;13.47;;;7.40;99.90;;;;;;5029039;28;20244;-69
2021/10/17 01:18:20;;;;;;;27.20;14.07;;;7.40;99.90;;;;;;5030498;28;20189;-69
2021/10/17 01:20:52;;;;;;;28.87;14.07;;;7.40;99.90;;;;;;5028585;28;20629;-69
2021/10/17 01:23:21;;;;;;;29.40;14.23;;;7.30;99.90;;;;;;5029141;28;20189;-69
2021/10/17 01:25:50;;;;;;;27.43;13.87;;;7.30;99.90;;;;;;5027766;28;20225;-69
2021/10/17 01:28:19;;;;;;;27.40;14.30;;;7.20;99.90;;;;;;5013245;28;20322;-69
2021/10/17 01:30:48;;;;;;;28.07;13.60;;;7.30;99.90;;;;;;5025317;28;20208;-69
2021/10/17 01:33:18;;;;;;;24.60;13.93;;;7.20;99.90;;;;;;5027146;28;20189;-69
2021/10/17 01:35:46;;;;;;;29.53;14.47;;;7.20;99.90;;;;;;5029282;28;20740;-69
2021/10/17 01:38:16;;;;;;;28.37;14.80;;;7.10;99.90;;;;;;5022122;28;20225;-69
2021/10/17 01:40:48;;;;;;;31.00;15.40;;;7.10;99.90;;;;;;5031048;28;20221;-69
2021/10/17 01:43:16;;;;;;;25.00;15.27;;;7.10;99.90;;;;;;5022748;28;20701;-69
2021/10/17 01:45:44;;;;;;;25.47;15.10;;;7.10;99.90;;;;;;5025541;28;20282;-69
2021/10/17 01:48:13;;;;;;;29.20;16.27;;;7.10;99.90;;;;;;5027065;28;20716;-69
2021/10/17 01:50:41;;;;;;;26.07;15.07;;;7.10;99.90;;;;;;5029816;28;20197;-69
2021/10/17 01:53:10;;;;;;;31.13;15.00;;;7.10;99.90;;;;;;5028020;28;20591;-69
2021/10/17 01:55:40;;;;;;;28.57;15.67;;;7.20;99.90;;;;;;5027199;28;20672;-69
2021/10/17 01:58:08;;;;;;;26.37;14.93;;;7.20;99.90;;;;;;5025389;28;20224;-69
2021/10/17 02:00:37;;;;;;;28.07;15.23;;;7.30;99.90;;;;;;5027218;28;20193;-69
2021/10/17 02:03:06;;;;;;;27.87;14.50;;;7.40;99.90;;;;;;5030144;28;20217;-68
2021/10/17 02:05:34;;;;;;;27.27;14.90;;;7.40;99.90;;;;;;5024941;28;20213;-69
2021/10/17 02:08:02;;;;;;;31.53;15.83;;;7.50;99.90;;;;;;5025401;28;20213;-69
2021/10/17 02:10:31;;;;;;;28.60;15.20;;;7.50;99.90;;;;;;5026939;28;20236;-68
2021/10/17 02:13:02;;;;;;;28.80;14.50;;;7.50;99.90;;;;;;5017909;28;20502;-69
2021/10/17 02:15:32;;;;;;;24.97;13.47;;;7.50;99.90;;;;;;5025470;28;20236;-69
2021/10/17 02:18:01;;;;;;;27.13;13.90;;;7.50;99.90;;;;;;5020331;28;20197;-69
2021/10/17 02:20:32;;;;;;;24.90;14.23;;;7.60;99.90;;;;;;5022155;28;20193;-69
2021/10/17 02:23:01;;;;;;;23.87;15.03;;;7.60;99.90;;;;;;5027666;28;20241;-69
2021/10/17 02:25:30;;;;;;;24.70;14.20;;;7.60;99.90;;;;;;5027018;28;20220;-69
2021/10/17 02:28:00;;;;;;;27.57;14.33;;;7.60;99.90;;;;;;5028740;28;20712;-69
2021/10/17 02:30:29;;;;;;;27.43;14.30;;;7.60;99.90;;;;;;5028612;28;20225;-69
2021/10/17 02:32:58;;;;;;;24.63;13.27;;;7.60;99.90;;;;;;5020337;28;20687;-69
2021/10/17 02:35:27;;;;;;;27.77;14.27;;;7.60;99.90;;;;;;5022438;28;20196;-69
2021/10/17 02:37:55;;;;;;;26.53;13.60;;;7.60;99.90;;;;;;5028034;28;20255;-69
2021/10/17 02:40:24;;;;;;;28.50;14.47;;;7.60;99.90;;;;;;5025171;28;20190;-69
2021/10/17 02:42:53;;;;;;;29.17;14.70;;;7.60;99.90;;;;;;5029214;28;20251;-69
2021/10/17 02:45:23;;;;;;;25.30;14.20;;;7.60;99.90;;;;;;5027301;28;20209;-69
2021/10/17 02:47:53;;;;;;;22.00;13.30;;;7.70;99.90;;;;;;5024190;28;20723;-69
2021/10/17 02:50:23;;;;;;;30.77;14.00;;;7.70;99.90;;;;;;5033898;28;20221;-69
2021/10/17 02:52:52;;;;;;;28.03;13.90;;;7.70;99.90;;;;;;5026258;28;20225;-69
2021/10/17 02:55:21;;;;;;;29.60;13.33;;;7.70;99.90;;;;;;5029404;28;20190;-69
2021/10/17 02:57:49;;;;;;;25.53;13.47;;;7.70;99.90;;;;;;5025519;28;20198;-69
2021/10/17 03:00:19;;;;;;;27.30;13.53;;;7.70;99.90;;;;;;5026408;28;20236;-69
2021/10/17 03:02:49;;;;;;;26.93;14.03;;;7.80;99.90;;;;;;5027458;28;20186;-69
2021/10/17 03:05:18;;;;;;;26.63;13.33;;;7.80;99.90;;;;;;5027554;28;20220;-69
2021/10/17 03:07:47;;;;;;;28.73;13.33;;;7.80;99.90;;;;;;5026929;28;20198;-69
2021/10/17 03:10:17;;;;;;;26.37;13.77;;;7.80;99.90;;;;;;5031899;28;20287;-69
2021/10/17 03:12:45;;;;;;;27.70;13.53;;;7.80;99.90;;;;;;5023606;28;20289;-69
2021/10/17 03:15:14;;;;;;;26.53;12.70;;;7.80;99.90;;;;;;5021150;28;20189;-69
2021/10/17 03:17:42;;;;;;;24.13;12.13;;;7.90;99.90;;;;;;5027537;28;20280;-69
2021/10/17 03:20:12;;;;;;;28.60;12.67;;;7.80;99.90;;;;;;5030008;28;20669;-69
2021/10/17 03:22:41;;;;;;;22.93;12.13;;;7.80;99.90;;;;;;5022593;28;20653;-69
2021/10/17 03:25:10;;;;;;;23.57;11.50;;;7.90;99.90;;;;;;5028996;28;20287;-69
2021/10/17 03:27:38;;;;;;;22.43;12.17;;;7.90;99.90;;;;;;5027752;28;20553;-69
2021/10/17 03:30:08;;;;;;;22.17;11.87;;;7.90;99.90;;;;;;5030402;28;20703;-69
2021/10/17 03:32:36;;;;;;;25.17;11.77;;;8.00;99.90;;;;;;5020431;28;20289;-69
2021/10/17 03:35:05;;;;;;;26.50;12.00;;;7.90;99.90;;;;;;5024205;28;20331;-68
2021/10/17 03:37:35;;;;;;;20.23;11.50;;;8.00;99.90;;;;;;5026099;28;20197;-67
2021/10/17 03:40:05;;;;;;;25.67;11.50;;;8.00;99.90;;;;;;5026766;28;20272;-69
2021/10/17 03:42:33;;;;;;;20.73;11.53;;;8.00;99.90;;;;;;5023869;28;20194;-69
2021/10/17 03:45:02;;;;;;;21.20;11.20;;;7.90;99.90;;;;;;5026504;28;20288;-69
2021/10/17 03:47:30;;;;;;;20.00;10.83;;;7.90;99.90;;;;;;5022768;28;20252;-69
2021/10/17 03:49:58;;;;;;;19.50;10.47;;;7.90;99.90;;;;;;5021409;28;20746;-69
2021/10/17 03:52:27;;;;;;;21.37;10.80;;;7.90;99.90;;;;;;5026940;28;20194;-69
2021/10/17 03:54:57;;;;;;;21.73;10.53;;;7.90;99.90;;;;;;5028615;28;20723;-69
2021/10/17 03:57:26;;;;;;;19.20;11.00;;;8.00;99.90;;;;;;5025708;28;20212;-69
2021/10/17 03:59:54;;;;;;;21.97;11.20;;;7.90;99.90;;;;;;5025555;28;20251;-69
2021/10/17 04:02:23;;;;;;;21.70;11.27;;;7.90;99.90;;;;;;5024913;28;20618;-69
2021/10/17 04:04:51;;;;;;;30.70;10.90;;;8.00;99.90;;;;;;5025699;28;20296;-69
2021/10/17 04:07:20;;;;;;;22.57;10.70;;;8.00;99.90;;;;;;5028043;28;20229;-69
2021/10/17 04:09:48;;;;;;;20.13;10.70;;;8.00;99.90;;;;;;5023797;28;20581;-69
2021/10/17 04:12:18;;;;;;;17.03;10.30;;;8.00;99.90;;;;;;5013991;28;20260;-69
2021/10/17 04:15:28;;;;;;;22.57;10.53;;;7.90;99.90;;;;;;5029862;28;20201;-68
2021/10/17 04:18:46;;;;;;;19.30;10.50;;;8.00;99.90;;;;;;5021820;28;20193;-69
2021/10/17 04:22:06;;;;;;;22.10;10.43;;;7.90;99.90;;;;;;5019822;28;20247;-69
2021/10/17 04:25:25;;;;;;;17.80;9.93;;;7.90;99.90;;;;;;5022564;28;20223;-69
2021/10/17 04:28:46;;;;;;;17.90;10.47;;;7.90;99.90;;;;;;5028275;28;20184;-69
2021/10/17 04:31:16;;;;;;;20.47;10.73;;;7.90;99.90;;;;;;5030119;28;20660;-69
2021/10/17 04:33:44;;;;;;;18.97;10.07;;;7.90;99.90;;;;;;5026186;28;20556;-69
2021/10/17 04:36:13;;;;;;;19.43;10.77;;;7.90;99.90;;;;;;5031428;28;20718;-69
2021/10/17 04:38:41;;;;;;;19.40;10.80;;;7.90;99.90;;;;;;5033615;28;20603;-69
2021/10/17 04:41:10;;;;;;;18.03;10.13;;;7.90;99.90;;;;;;5027112;28;20196;-69
2021/10/17 04:43:39;;;;;;;25.93;10.50;;;7.80;99.90;;;;;;5032417;28;20251;-69
2021/10/17 04:46:09;;;;;;;19.00;10.37;;;7.80;99.90;;;;;;5029762;28;20750;-69
2021/10/17 04:48:38;;;;;;;18.80;9.60;;;7.80;99.90;;;;;;5029806;28;20679;-69
2021/10/17 04:51:06;;;;;;;23.00;10.63;;;7.90;99.90;;;;;;5026692;28;20248;-69
2021/10/17 04:53:37;;;;;;;23.80;11.00;;;8.00;99.90;;;;;;5024015;28;20193;-69
2021/10/17 04:56:05;;;;;;;31.47;11.83;;;7.90;99.90;;;;;;5030586;28;20177;-69
2021/10/17 04:58:34;;;;;;;22.30;10.50;;;7.90;99.90;;;;;;5034504;28;20189;-69
2021/10/17 05:01:02;;;;;;;24.00;9.83;;;7.90;99.90;;;;;;5027792;28;20213;-68
2021/10/17 05:03:32;;;;;;;21.37;10.53;;;7.90;99.90;;;;;;5027776;28;20197;-69
2021/10/17 05:06:01;;;;;;;15.13;9.47;;;7.90;99.90;;;;;;5032545;28;20218;-69
2021/10/17 05:08:29;;;;;;;18.17;10.37;;;7.90;99.90;;;;;;5028854;28;20185;-69
2021/10/17 05:10:58;;;;;;;27.17;10.47;;;7.90;99.90;;;;;;5025215;28;20281;-69
2021/10/17 05:13:27;;;;;;;23.47;10.53;;;7.90;99.90;;;;;;5028130;28;20198;-69
2021/10/17 05:15:55;;;;;;;23.30;9.43;;;7.90;99.90;;;;;;5030550;28;20193;-69
2021/10/17 05:18:24;;;;;;;20.27;10.43;;;7.90;99.90;;;;;;5032714;28;20660;-69
2021/10/17 05:20:54;;;;;;;24.03;10.03;;;7.80;99.90;;;;;;5031880;28;20696;-69
2021/10/17 05:23:23;;;;;;;19.60;10.00;;;7.80;99.90;;;;;;5040157;28;20220;-69
2021/10/17 05:25:51;;;;;;;21.33;10.20;;;7.80;99.90;;;;;;5032475;28;20524;-69
2021/10/17 05:28:20;;;;;;;13.00;9.17;;;7.80;99.90;;;;;;5022228;28;20193;-69
2021/10/17 05:30:48;;;;;;;21.33;9.73;;;7.80;99.90;;;;;;5028505;28;20200;-69
2021/10/17 05:33:20;;;;;;;16.33;9.60;;;7.80;99.90;;;;;;5026382;28;20202;-69
2021/10/17 05:35:48;;;;;;;18.30;9.67;;;7.90;99.90;;;;;;5033775;28;20182;-69
2021/10/17 05:38:18;;;;;;;18.70;9.43;;;7.90;99.90;;;;;;5010079;28;20185;-69
2021/10/17 05:40:47;;;;;;;24.47;10.23;;;7.80;99.90;;;;;;5027898;28;20607;-69
2021/10/17 05:43:16;;;;;;;19.50;9.57;;;7.80;99.90;;;;;;5033908;28;20220;-69
2021/10/17 05:45:46;;;;;;;23.20;10.33;;;7.70;99.90;;;;;;5023823;28;20606;-69
2021/10/17 05:48:15;;;;;;;20.70;10.30;;;7.70;99.90;;;;;;5028167;28;20233;-69
2021/10/17 05:50:44;;;;;;;18.63;10.13;;;7.60;99.90;;;;;;5026439;28;20288;-69
2021/10/17 05:53:15;;;;;;;21.30;9.90;;;7.60;99.90;;;;;;5026810;28;20233;-69
2021/10/17 05:55:45;;;;;;;21.30;10.50;;;7.60;99.90;;;;;;5031715;28;20663;-69
2021/10/17 05:58:13;;;;;;;20.50;10.87;;;7.60;99.90;;;;;;5021745;28;20255;-69
2021/10/17 06:00:41;;;;;;;20.13;10.07;;;7.60;99.90;;;;;;5028486;28;20235;-69
2021/10/17 06:03:10;;;;;;;21.57;9.87;;;7.50;99.90;;;;;;5022698;28;20292;-69
2021/10/17 06:05:39;;;;;;;17.60;9.97;;;7.40;99.90;;;;;;5030524;28;20799;-69
2021/10/17 06:08:10;;;;;;;17.97;9.73;;;7.40;99.90;;;;;;5030496;28;20248;-69
2021/10/17 06:10:41;;;;;;;19.57;9.90;;;7.30;99.90;;;;;;5029343;28;20208;-69
2021/10/17 06:13:12;;;;;;;19.80;10.33;;;7.20;99.90;;;;;;5032861;28;20228;-69
2021/10/17 06:15:41;;;;;;;18.70;10.27;;;7.20;99.90;;;;;;5026450;28;20633;-67
2021/10/17 06:18:09;;;;;;;19.63;10.00;;;7.10;99.90;;;;;;5029131;28;20548;-68
2021/10/17 06:20:38;;;;;;;20.10;10.70;;;7.10;99.90;;;;;;5021158;28;20193;-69
2021/10/17 06:23:06;;;;;;;21.73;11.00;;;7.10;99.90;;;;;;5018655;28;20202;-69
2021/10/17 06:25:35;;;;;;;18.93;10.17;;;7.10;99.90;;;;;;5020012;28;20194;-69
2021/10/17 06:28:04;;;;;;;26.60;11.13;;;7.00;99.90;;;;;;5020831;28;20222;-69
2021/10/17 06:30:34;;;;;;;25.17;11.20;;;7.00;99.90;;;;;;5028326;28;20197;-69
2021/10/17 06:33:02;;;;;;;20.87;10.43;;;6.90;99.90;;;;;;5022378;28;20201;-69
2021/10/17 06:35:30;;;;;;;25.30;11.20;;;7.00;99.90;;;;;;5024885;28;20296;-69
2021/10/17 06:37:59;;;;;;;21.10;10.53;;;7.00;99.90;;;;;;5024223;28;20201;-69
2021/10/17 06:40:28;;;;;;;18.80;10.53;;;7.10;99.90;;;;;;5028345;28;20201;-69
2021/10/17 06:42:57;;;;;;;17.37;10.53;;;7.20;99.90;;;;;;5019294;28;20193;-69
2021/10/17 06:45:25;;;;;;;21.93;11.17;;;7.20;99.90;;;;;;5024466;28;20194;-69
2021/10/17 06:47:55;;;;;;;22.93;10.80;;;7.20;99.90;;;;;;5024796;28;20275;-69
2021/10/17 06:50:24;;;;;;;22.57;11.47;;;7.30;99.90;;;;;;5023648;28;20633;-69
2021/10/17 06:52:52;;;;;;;37.80;19.07;;;7.30;99.90;;;;;;5021356;28;20209;-69
2021/10/17 06:55:21;;;;;;;75.10;42.67;;;7.30;99.90;;;;;;5028780;28;20221;-69
2021/10/17 06:57:50;;;;;;;47.70;29.03;;;7.40;99.90;;;;;;5027526;28;20285;-69
2021/10/17 07:00:19;;;;;;;37.50;23.83;;;7.50;99.90;;;;;;5034189;28;20197;-69
2021/10/17 07:02:48;;;;;;;20.37;11.40;;;7.50;99.90;;;;;;5028858;28;20691;-69
2021/10/17 07:05:17;;;;;;;24.53;10.70;;;7.70;99.90;;;;;;5030135;28;20197;-69
2021/10/17 07:07:46;;;;;;;24.93;10.50;;;7.80;99.90;;;;;;5023870;28;20205;-69
2021/10/17 07:10:17;;;;;;;17.77;9.23;;;7.90;99.90;;;;;;5019487;28;20200;-69
2021/10/17 07:12:45;;;;;;;19.77;9.87;;;8.00;99.90;;;;;;5023127;28;20217;-69
2021/10/17 07:15:14;;;;;;;14.10;9.67;;;8.20;99.90;;;;;;5021250;28;20197;-69
2021/10/17 07:17:43;;;;;;;15.00;9.20;;;8.30;99.90;;;;;;5023156;28;20194;-68
2021/10/17 07:20:28;;;;;;;20.40;10.10;;;8.40;99.90;;;;;;5011717;28;20665;-69
2021/10/17 07:22:56;;;;;;;17.77;9.47;;;8.60;99.90;;;;;;5023264;28;20528;-69
2021/10/17 07:25:25;;;;;;;16.30;9.87;;;8.70;99.90;;;;;;5019175;28;20194;-69
2021/10/17 07:27:53;;;;;;;19.10;9.27;;;8.90;99.90;;;;;;5019751;28;20218;-69
2021/10/17 07:30:22;;;;;;;16.20;9.57;;;9.10;99.90;;;;;;5022687;28;20217;-69
2021/10/17 07:32:50;;;;;;;14.00;9.03;;;9.30;99.90;;;;;;5032835;28;20216;-69
2021/10/17 07:35:19;;;;;;;19.63;9.07;;;9.30;99.90;;;;;;5036023;28;20552;-67
2021/10/17 07:37:49;;;;;;;16.90;9.40;;;9.40;99.90;;;;;;5024411;28;20224;-69
2021/10/17 07:40:17;;;;;;;16.60;9.90;;;9.50;99.90;;;;;;5023058;28;20206;-69
2021/10/17 07:42:46;;;;;;;18.97;10.53;;;9.50;99.90;;;;;;5021704;28;20194;-69
2021/10/17 07:45:15;;;;;;;14.73;9.83;;;9.50;99.90;;;;;;5024293;28;20284;-69
2021/10/17 07:47:43;;;;;;;18.17;9.80;;;9.50;99.90;;;;;;5016579;28;20700;-66
2021/10/17 07:50:12;;;;;;;16.70;10.53;;;9.60;99.90;;;;;;5021665;28;20193;-69
2021/10/17 07:52:41;;;;;;;18.13;9.67;;;9.70;99.90;;;;;;5028848;28;20201;-69
2021/10/17 07:55:10;;;;;;;15.13;8.60;;;9.90;99.90;;;;;;5024464;28;20715;-69
2021/10/17 07:57:46;;;;;;;16.40;8.80;;;10.10;99.90;;;;;;5030943;28;20737;-69
2021/10/17 08:00:18;;;;;;;15.43;9.23;;;10.20;99.90;;;;;;5030721;28;20185;-69
2021/10/17 08:02:46;;;;;;;15.73;8.43;;;10.30;99.90;;;;;;5018235;28;20201;-69
2021/10/17 08:05:19;;;;;;;12.47;8.40;;;10.50;99.90;;;;;;5023312;28;20283;-67
2021/10/17 08:07:50;;;;;;;13.97;8.57;;;10.50;99.90;;;;;;5019409;28;21342;-69
2021/10/17 08:10:19;;;;;;;14.00;9.20;;;10.80;99.90;;;;;;5024055;28;20591;-69
2021/10/17 08:12:48;;;;;;;18.63;10.93;;;11.00;99.90;;;;;;5022825;28;20201;-69
2021/10/17 08:15:16;;;;;;;15.50;8.63;;;11.30;99.90;;;;;;5014474;28;20200;-69
2021/10/17 08:17:45;;;;;;;13.67;8.37;;;11.40;99.90;;;;;;5023498;28;20414;-69
2021/10/17 08:20:13;;;;;;;19.30;8.53;;;11.50;99.90;;;;;;5003339;28;20205;-69
2021/10/17 08:22:42;;;;;;;13.27;7.70;;;11.70;99.90;;;;;;5027805;28;20212;-69
2021/10/17 08:25:10;;;;;;;10.20;8.47;;;11.70;99.90;;;;;;5019829;28;20193;-68
2021/10/17 08:27:43;;;;;;;13.87;8.00;;;11.80;99.90;;;;;;5020956;28;20221;-69
2021/10/17 08:30:12;;;;;;;16.80;8.73;;;11.90;99.90;;;;;;5019747;28;20202;-69
2021/10/17 08:32:41;;;;;;;11.97;8.37;;;11.90;99.90;;;;;;5021297;28;20189;-69
2021/10/17 08:35:10;;;;;;;14.10;8.20;;;11.90;99.90;;;;;;5019908;28;20204;-69
2021/10/17 08:37:39;;;;;;;18.80;8.00;;;12.00;99.90;;;;;;5019106;28;20190;-69
2021/10/17 08:40:08;;;;;;;10.73;7.20;;;12.10;99.90;;;;;;5023097;28;20292;-69
2021/10/17 08:42:37;;;;;;;17.90;8.73;;;12.10;99.90;;;;;;5027808;28;20189;-69
2021/10/17 08:45:08;;;;;;;12.47;8.00;;;12.20;99.90;;;;;;5022250;28;20193;-68
2021/10/17 08:47:38;;;;;;;13.20;7.60;;;12.20;99.90;;;;;;5016815;28;20228;-69
2021/10/17 08:50:09;;;;;;;12.37;7.67;;;12.40;99.90;;;;;;5023438;28;20189;-68
2021/10/17 08:52:38;;;;;;;13.07;7.80;;;12.40;99.90;;;;;;5017376;28;20196;-69
2021/10/17 08:55:07;;;;;;;10.80;7.40;;;12.50;99.90;;;;;;5021831;28;20243;-68
2021/10/17 08:57:36;;;;;;;12.70;7.63;;;12.50;99.90;;;;;;5025137;28;20189;-69
2021/10/17 09:00:24;;;;;;;11.57;7.03;;;12.60;99.90;;;;;;5022934;28;20694;-69
2021/10/17 09:02:55;;;;;;;14.60;7.87;;;12.70;99.90;;;;;;5019968;28;20238;-69
2021/10/17 09:05:34;;;;;;;12.77;7.40;;;12.70;99.90;;;;;;5023163;28;20531;-69
2021/10/17 09:08:03;;;;;;;15.67;8.03;;;12.80;99.90;;;;;;5018352;28;20303;-68
2021/10/17 09:10:51;;;;;;;10.00;7.57;;;12.90;99.90;;;;;;5021945;28;20196;-69
2021/10/17 09:14:13;;;;;;;14.07;7.83;;;13.00;99.90;;;;;;5023374;28;20563;-69
2021/10/17 09:17:32;;;;;;;14.63;7.17;;;12.90;99.90;;;;;;5029812;28;20638;-69
2021/10/17 09:20:02;;;;;;;10.03;6.47;;;13.00;99.90;;;;;;5031186;28;20741;-69
2021/10/17 09:22:32;;;;;;;10.87;7.10;;;13.10;99.90;;;;;;5029373;28;20206;-69
2021/10/17 09:25:00;;;;;;;12.10;7.47;;;13.10;99.90;;;;;;5025936;28;20201;-69
2021/10/17 09:27:29;;;;;;;10.03;7.03;;;13.10;99.90;;;;;;5029666;28;20580;-69
2021/10/17 09:29:58;;;;;;;12.60;6.97;;;13.30;99.90;;;;;;5028199;28;20217;-69
2021/10/17 09:32:29;;;;;;;12.57;7.00;;;13.40;99.90;;;;;;5024528;28;20187;-69
2021/10/17 09:34:59;;;;;;;10.53;6.90;;;13.30;99.90;;;;;;5031222;28;20196;-69
2021/10/17 09:37:33;;;;;;;14.27;7.07;;;13.50;99.90;;;;;;5031538;28;20270;-69
2021/10/17 09:40:04;;;;;;;9.97;6.13;;;13.50;99.90;;;;;;5030027;28;20201;-69
2021/10/17 09:42:39;;;;;;;11.83;6.63;;;13.60;99.90;;;;;;5029184;28;20280;-69
2021/10/17 09:45:21;;;;;;;13.70;6.40;;;13.70;99.90;;;;;;5029666;28;20276;-69
2021/10/17 09:47:49;;;;;;;9.67;6.23;;;13.80;99.90;;;;;;5027739;28;20581;-68
2021/10/17 09:50:20;;;;;;;9.87;6.30;;;13.80;99.90;;;;;;5029527;28;20303;-69
2021/10/17 09:53:11;;;;;;;8.40;6.10;;;13.80;99.90;;;;;;5026504;28;20196;-68
2021/10/17 09:55:52;;;;;;;9.60;6.27;;;14.00;99.90;;;;;;5027284;28;20534;-68
2021/10/17 09:58:22;;;;;;;6.80;5.70;;;14.10;99.90;;;;;;5032787;28;20191;-69
2021/10/17 10:00:51;;;;;;;9.40;6.20;;;14.10;99.90;;;;;;5010883;28;20221;-69
2021/10/17 10:03:23;;;;;;;12.40;7.13;;;14.20;99.90;;;;;;5028883;28;20243;-69
2021/10/17 10:05:52;;;;;;;13.03;6.17;;;14.30;99.90;;;;;;5029770;28;20209;-69
2021/10/17 10:08:22;;;;;;;9.17;6.23;;;14.40;99.90;;;;;;5034161;28;20225;-69
2021/10/17 10:10:51;;;;;;;12.00;6.13;;;14.30;99.90;;;;;;5029338;28;20273;-69
2021/10/17 10:13:20;;;;;;;10.57;6.00;;;14.40;99.90;;;;;;5025364;28;20200;-68
2021/10/17 10:15:51;;;;;;;12.87;5.77;;;14.60;99.90;;;;;;5029246;28;20304;-69
2021/10/17 10:18:22;;;;;;;16.60;8.97;;;14.80;99.90;;;;;;5025422;28;20182;-69
2021/10/17 10:20:51;;;;;;;34.87;22.57;;;14.80;99.90;;;;;;5023774;28;20239;-69
2021/10/17 10:23:21;;;;;;;22.93;16.47;;;14.60;99.90;;;;;;5025707;28;20653;-69
2021/10/17 10:25:53;;;;;;;20.70;10.60;;;14.70;99.90;;;;;;5022444;28;20216;-69
2021/10/17 10:28:25;;;;;;;25.10;17.07;;;14.70;99.90;;;;;;5020115;28;20434;-69
2021/10/17 10:30:54;;;;;;;7.53;5.83;;;14.80;99.90;;;;;;5022328;28;20231;-68
2021/10/17 10:33:24;;;;;;;9.70;5.50;;;14.90;99.90;;;;;;5023342;28;20568;-68
2021/10/17 10:36:09;;;;;;;8.83;5.70;;;14.90;99.90;;;;;;5021577;28;20209;-69
2021/10/17 10:39:14;;;;;;;9.67;6.10;;;14.90;99.90;;;;;;5024538;28;20208;-69
2021/10/17 10:41:56;;;;;;;6.70;5.10;;;14.90;99.90;;;;;;5026648;28;20471;-68
2021/10/17 10:44:27;;;;;;;9.10;5.73;;;14.90;99.90;;;;;;5031533;28;20232;-69
2021/10/17 10:46:57;;;;;;;14.20;7.30;;;15.00;99.90;;;;;;5030226;28;20775;-69
2021/10/17 10:49:41;;;;;;;11.93;6.80;;;15.00;99.90;;;;;;5023493;28;20246;-69
2021/10/17 10:52:31;;;;;;;12.17;5.93;;;15.10;99.90;;;;;;5028081;28;20207;-69
2021/10/17 10:55:01;;;;;;;9.17;5.30;;;15.30;99.90;;;;;;5031066;28;20301;-68
2021/10/17 10:57:39;;;;;;;12.47;5.00;;;15.50;99.90;;;;;;5029891;28;20217;-69
2021/10/17 11:00:09;;;;;;;7.27;5.07;;;15.60;99.90;;;;;;5026755;28;20288;-69
2021/10/17 11:02:38;;;;;;;9.77;5.40;;;15.80;99.90;;;;;;5023216;28;20196;-69
2021/10/17 11:05:15;;;;;;;8.63;4.80;;;15.80;99.90;;;;;;5026004;28;20469;-69
2021/10/17 11:07:45;;;;;;;10.70;7.10;;;16.00;99.90;;;;;;5024888;28;20290;-69
2021/10/17 11:10:50;;;;;;;11.13;5.77;;;16.00;99.90;;;;;;5022348;28;20250;-69
2021/10/17 11:13:33;;;;;;;7.83;4.97;;;16.00;99.90;;;;;;5017946;28;20263;-69
2021/10/17 11:16:03;;;;;;;9.27;4.93;;;16.20;99.90;;;;;;5026110;28;20183;-68
2021/10/17 11:18:36;;;;;;;8.30;5.53;;;16.10;99.90;;;;;;5020065;28;20206;-69
2021/10/17 11:21:06;;;;;;;9.97;5.30;;;16.10;99.90;;;;;;5019306;28;20199;-69
2021/10/17 11:23:36;;;;;;;9.53;4.43;;;16.30;99.90;;;;;;5022050;28;20629;-69
2021/10/17 11:26:06;;;;;;;7.83;4.40;;;16.40;99.90;;;;;;5014876;28;20590;-69
2021/10/17 11:28:38;;;;;;;6.70;4.50;;;16.30;99.90;;;;;;5022903;28;20467;-69
2021/10/17 11:31:10;;;;;;;6.87;4.90;;;16.20;99.90;;;;;;5024636;28;20249;-69
2021/10/17 11:33:40;;;;;;;7.03;4.60;;;16.30;99.90;;;;;;5018060;28;20185;-69
2021/10/17 11:36:11;;;;;;;6.03;4.80;;;16.40;99.90;;;;;;5016863;28;20290;-69
2021/10/17 11:38:40;;;;;;;7.40;5.00;;;16.40;99.90;;;;;;5022966;28;20285;-69
2021/10/17 11:41:10;;;;;;;8.10;5.07;;;16.60;99.90;;;;;;5020226;28;20281;-69
2021/10/17 11:43:42;;;;;;;4.63;3.90;;;16.60;99.90;;;;;;5024458;28;20469;-69
2021/10/17 11:46:12;;;;;;;5.67;3.83;;;16.60;99.90;;;;;;5025305;28;20719;-69
2021/10/17 11:48:44;;;;;;;6.83;4.33;;;16.70;99.90;;;;;;5026239;28;20188;-69
2021/10/17 11:51:14;;;;;;;9.43;7.30;;;16.70;99.90;;;;;;5019943;28;20406;-69
2021/10/17 11:53:43;;;;;;;7.13;5.03;;;16.60;99.90;;;;;;5023626;28;20186;-69
2021/10/17 11:56:12;;;;;;;8.93;4.40;;;16.50;99.90;;;;;;5017079;28;20483;-69
2021/10/17 11:58:43;;;;;;;4.90;4.43;;;16.60;99.90;;;;;;5006939;28;20193;-69
2021/10/17 12:01:15;;;;;;;6.53;4.53;;;16.70;99.90;;;;;;5020790;28;20560;-69
2021/10/17 12:03:49;;;;;;;6.73;4.60;;;16.60;99.90;;;;;;5017819;28;20200;-69
2021/10/17 12:06:20;;;;;;;5.03;4.53;;;16.60;99.90;;;;;;5022091;28;20309;-69
2021/10/17 12:08:53;;;;;;;10.00;4.43;;;16.60;99.90;;;;;;5020240;28;20202;-69
2021/10/17 12:11:23;;;;;;;7.97;4.23;;;16.60;99.90;;;;;;5020422;28;20211;-68
2021/10/17 12:13:54;;;;;;;9.53;4.33;;;16.60;99.90;;;;;;5022637;28;20198;-69
2021/10/17 12:16:24;;;;;;;6.03;3.80;;;16.70;99.90;;;;;;5013073;28;20288;-69
2021/10/17 12:18:55;;;;;;;4.67;4.23;;;16.60;99.90;;;;;;5023260;28;20193;-69
2021/10/17 12:21:26;;;;;;;6.73;4.53;;;16.60;99.90;;;;;;5023968;28;20278;-69
2021/10/17 12:24:00;;;;;;;5.83;4.00;;;16.90;99.90;;;;;;5019173;28;20623;-69
2021/10/17 12:26:32;;;;;;;6.07;3.73;;;16.80;99.90;;;;;;5019190;28;20191;-69
2021/10/17 12:29:11;;;;;;;7.43;4.87;;;16.80;99.90;;;;;;5024160;28;20477;-69
2021/10/17 12:31:42;;;;;;;4.10;3.70;;;16.70;99.90;;;;;;5022450;28;20240;-71
2021/10/17 12:34:10;;;;;;;4.80;3.70;;;16.70;99.90;;;;;;5019899;28;20230;-69
2021/10/17 12:36:41;;;;;;;10.53;6.37;;;16.80;99.90;;;;;;5032716;28;20192;-69
2021/10/17 12:39:11;;;;;;;5.03;3.63;;;16.80;99.90;;;;;;5028428;28;20206;-69
2021/10/17 12:41:40;;;;;;;4.83;4.33;;;16.80;99.90;;;;;;5027412;28;20178;-69
2021/10/17 12:44:12;;;;;;;3.87;3.27;;;16.90;99.90;;;;;;5020364;28;20280;-69
2021/10/17 12:46:40;;;;;;;4.77;3.60;;;16.90;99.90;;;;;;5026003;28;20497;-69
2021/10/17 12:49:11;;;;;;;6.97;3.80;;;16.90;99.90;;;;;;5029601;28;20198;-69
2021/10/17 12:51:48;;;;;;;6.03;3.50;;;16.80;99.90;;;;;;5021614;28;20260;-69
2021/10/17 12:54:18;;;;;;;8.90;4.40;;;16.70;99.90;;;;;;5029220;28;20194;-68
2021/10/17 12:56:59;;;;;;;6.10;3.67;;;16.60;99.90;;;;;;5026303;28;20644;-69
2021/10/17 12:59:32;;;;;;;7.80;4.30;;;16.60;99.90;;;;;;5022937;28;20233;-69
2021/10/17 13:02:04;;;;;;;4.13;3.30;;;16.50;99.90;;;;;;5028103;28;20190;-69